sensor_id;sensor_type;location;lat;lon;timestamp;P1;durP1;ratioP1;P2;durP2;ratioP2
10847;SDS011;5477;48.806;9.154;2022-11-20T00:00:53;11.27;;;8.83;;
10847;SDS011;5477;48.806;9.154;2022-11-20T00:03:21;11.47;;;8.70;;
10847;SDS011;5477;48.806;9.154;2022-11-20T00:05:50;13.07;;;8.13;;
10847;SDS011;5477;48.806;9.154;2022-11-20T00:08:18;15.13;;;10.03;;
10847;SDS011;5477;48.806;9.154;2022-11-20T00:10:46;15.70;;;9.93;;
10847;SDS011;5477;48.806;9.154;2022-11-20T00:13:14;15.63;;;10.77;;
10847;SDS011;5477;48.806;9.154;2022-11-20T00:15:43;16.33;;;10.23;;
10847;SDS011;5477;48.806;9.154;2022-11-20T00:18:11;17.20;;;10.23;;
10847;SDS011;5477;48.806;9.154;2022-11-20T00:20:39;18.10;;;10.87;;
10847;SDS011;5477;48.806;9.154;2022-11-20T00:23:07;16.53;;;10.20;;
10847;SDS011;5477;48.806;9.154;2022-11-20T00:25:35;15.00;;;10.30;;
10847;SDS011;5477;48.806;9.154;2022-11-20T00:28:03;14.27;;;8.67;;
10847;SDS011;5477;48.806;9.154;2022-11-20T00:30:30;13.73;;;9.03;;
10847;SDS011;5477;48.806;9.154;2022-11-20T00:33:00;12.03;;;8.93;;
10847;SDS011;5477;48.806;9.154;2022-11-20T00:35:28;13.60;;;8.43;;
10847;SDS011;5477;48.806;9.154;2022-11-20T00:37:56;20.13;;;9.33;;
10847;SDS011;5477;48.806;9.154;2022-11-20T00:40:23;11.63;;;8.10;;
10847;SDS011;5477;48.806;9.154;2022-11-20T00:42:51;9.93;;;7.80;;
10847;SDS011;5477;48.806;9.154;2022-11-20T00:45:19;9.90;;;7.23;;
10847;SDS011;5477;48.806;9.154;2022-11-20T00:47:47;8.57;;;6.90;;
10847;SDS011;5477;48.806;9.154;2022-11-20T00:50:16;8.03;;;5.97;;
10847;SDS011;5477;48.806;9.154;2022-11-20T00:52:44;6.43;;;5.50;;
10847;SDS011;5477;48.806;9.154;2022-11-20T00:55:12;6.53;;;5.30;;
10847;SDS011;5477;48.806;9.154;2022-11-20T00:57:40;8.60;;;5.73;;
10847;SDS011;5477;48.806;9.154;2022-11-20T01:00:09;7.33;;;4.83;;
10847;SDS011;5477;48.806;9.154;2022-11-20T01:02:37;8.27;;;4.87;;
10847;SDS011;5477;48.806;9.154;2022-11-20T01:05:05;6.03;;;4.90;;
10847;SDS011;5477;48.806;9.154;2022-11-20T01:07:35;5.20;;;4.10;;
10847;SDS011;5477;48.806;9.154;2022-11-20T01:10:03;4.30;;;3.80;;
10847;SDS011;5477;48.806;9.154;2022-11-20T01:12:32;5.70;;;3.90;;
10847;SDS011;5477;48.806;9.154;2022-11-20T01:15:00;4.80;;;3.30;;
10847;SDS011;5477;48.806;9.154;2022-11-20T01:17:27;6.37;;;4.03;;
10847;SDS011;5477;48.806;9.154;2022-11-20T01:19:55;7.23;;;3.80;;
10847;SDS011;5477;48.806;9.154;2022-11-20T01:22:23;5.57;;;3.70;;
10847;SDS011;5477;48.806;9.154;2022-11-20T01:24:53;4.03;;;3.50;;
10847;SDS011;5477;48.806;9.154;2022-11-20T01:27:21;3.73;;;3.00;;
10847;SDS011;5477;48.806;9.154;2022-11-20T01:29:48;6.10;;;3.30;;
10847;SDS011;5477;48.806;9.154;2022-11-20T01:32:16;4.03;;;3.20;;
10847;SDS011;5477;48.806;9.154;2022-11-20T01:34:44;3.50;;;3.17;;
10847;SDS011;5477;48.806;9.154;2022-11-20T01:37:12;4.00;;;3.07;;
10847;SDS011;5477;48.806;9.154;2022-11-20T01:39:40;3.57;;;3.00;;
10847;SDS011;5477;48.806;9.154;2022-11-20T01:42:09;3.03;;;2.57;;
10847;SDS011;5477;48.806;9.154;2022-11-20T01:44:55;3.33;;;2.87;;
10847;SDS011;5477;48.806;9.154;2022-11-20T01:47:26;4.50;;;3.50;;
10847;SDS011;5477;48.806;9.154;2022-11-20T01:49:58;5.57;;;3.50;;
10847;SDS011;5477;48.806;9.154;2022-11-20T01:52:32;3.67;;;2.83;;
10847;SDS011;5477;48.806;9.154;2022-11-20T01:55:04;3.57;;;2.90;;
10847;SDS011;5477;48.806;9.154;2022-11-20T01:57:36;4.33;;;2.97;;
10847;SDS011;5477;48.806;9.154;2022-11-20T02:00:07;5.90;;;3.13;;
10847;SDS011;5477;48.806;9.154;2022-11-20T02:02:39;4.20;;;3.23;;
10847;SDS011;5477;48.806;9.154;2022-11-20T02:05:12;5.43;;;3.13;;
10847;SDS011;5477;48.806;9.154;2022-11-20T02:07:46;6.33;;;3.20;;
10847;SDS011;5477;48.806;9.154;2022-11-20T02:10:15;4.60;;;2.90;;
10847;SDS011;5477;48.806;9.154;2022-11-20T02:12:44;4.67;;;3.30;;
10847;SDS011;5477;48.806;9.154;2022-11-20T02:15:30;3.03;;;2.40;;
10847;SDS011;5477;48.806;9.154;2022-11-20T02:18:00;3.27;;;2.60;;
10847;SDS011;5477;48.806;9.154;2022-11-20T02:20:28;4.13;;;2.97;;
10847;SDS011;5477;48.806;9.154;2022-11-20T02:22:57;4.03;;;2.60;;
10847;SDS011;5477;48.806;9.154;2022-11-20T02:25:32;4.60;;;2.80;;
10847;SDS011;5477;48.806;9.154;2022-11-20T02:28:02;3.13;;;2.37;;
10847;SDS011;5477;48.806;9.154;2022-11-20T02:30:30;3.27;;;2.97;;
10847;SDS011;5477;48.806;9.154;2022-11-20T02:32:58;4.07;;;2.73;;
10847;SDS011;5477;48.806;9.154;2022-11-20T02:35:40;5.00;;;2.97;;
10847;SDS011;5477;48.806;9.154;2022-11-20T02:38:12;3.30;;;2.43;;
10847;SDS011;5477;48.806;9.154;2022-11-20T02:40:42;3.30;;;2.60;;
10847;SDS011;5477;48.806;9.154;2022-11-20T02:43:10;3.57;;;2.43;;
10847;SDS011;5477;48.806;9.154;2022-11-20T02:45:38;4.13;;;2.93;;
10847;SDS011;5477;48.806;9.154;2022-11-20T02:48:06;5.03;;;2.97;;
10847;SDS011;5477;48.806;9.154;2022-11-20T02:50:36;3.30;;;2.63;;
10847;SDS011;5477;48.806;9.154;2022-11-20T02:53:05;3.53;;;2.70;;
10847;SDS011;5477;48.806;9.154;2022-11-20T02:55:33;3.80;;;2.70;;
10847;SDS011;5477;48.806;9.154;2022-11-20T02:58:03;5.80;;;2.80;;
10847;SDS011;5477;48.806;9.154;2022-11-20T03:00:31;3.77;;;2.53;;
10847;SDS011;5477;48.806;9.154;2022-11-20T03:02:59;4.30;;;2.53;;
10847;SDS011;5477;48.806;9.154;2022-11-20T03:05:28;3.67;;;2.43;;
10847;SDS011;5477;48.806;9.154;2022-11-20T03:07:56;3.23;;;2.50;;
10847;SDS011;5477;48.806;9.154;2022-11-20T03:10:24;4.73;;;2.97;;
10847;SDS011;5477;48.806;9.154;2022-11-20T03:12:52;3.93;;;2.90;;
10847;SDS011;5477;48.806;9.154;2022-11-20T03:15:23;2.80;;;2.50;;
10847;SDS011;5477;48.806;9.154;2022-11-20T03:17:52;4.30;;;2.60;;
10847;SDS011;5477;48.806;9.154;2022-11-20T03:20:21;2.77;;;2.47;;
10847;SDS011;5477;48.806;9.154;2022-11-20T03:22:50;2.80;;;2.30;;
10847;SDS011;5477;48.806;9.154;2022-11-20T03:25:18;2.67;;;2.47;;
10847;SDS011;5477;48.806;9.154;2022-11-20T03:27:45;3.70;;;2.70;;
10847;SDS011;5477;48.806;9.154;2022-11-20T03:30:13;3.57;;;2.67;;
10847;SDS011;5477;48.806;9.154;2022-11-20T03:32:43;5.63;;;2.87;;
10847;SDS011;5477;48.806;9.154;2022-11-20T03:35:11;3.13;;;2.83;;
10847;SDS011;5477;48.806;9.154;2022-11-20T03:37:39;6.03;;;2.83;;
10847;SDS011;5477;48.806;9.154;2022-11-20T03:40:07;4.00;;;2.80;;
10847;SDS011;5477;48.806;9.154;2022-11-20T03:42:36;3.87;;;2.80;;
10847;SDS011;5477;48.806;9.154;2022-11-20T03:45:13;3.43;;;2.63;;
10847;SDS011;5477;48.806;9.154;2022-11-20T03:47:43;3.70;;;2.97;;
10847;SDS011;5477;48.806;9.154;2022-11-20T03:50:12;3.87;;;2.80;;
10847;SDS011;5477;48.806;9.154;2022-11-20T03:52:41;5.27;;;2.67;;
10847;SDS011;5477;48.806;9.154;2022-11-20T03:55:09;2.80;;;2.47;;
10847;SDS011;5477;48.806;9.154;2022-11-20T03:57:37;4.17;;;2.70;;
10847;SDS011;5477;48.806;9.154;2022-11-20T04:00:05;4.43;;;2.93;;
10847;SDS011;5477;48.806;9.154;2022-11-20T04:02:33;3.80;;;2.83;;
10847;SDS011;5477;48.806;9.154;2022-11-20T04:05:03;5.47;;;3.30;;
10847;SDS011;5477;48.806;9.154;2022-11-20T04:07:33;5.17;;;2.83;;
10847;SDS011;5477;48.806;9.154;2022-11-20T04:10:01;3.97;;;3.23;;
10847;SDS011;5477;48.806;9.154;2022-11-20T04:12:31;4.57;;;2.87;;
10847;SDS011;5477;48.806;9.154;2022-11-20T04:15:00;5.73;;;3.13;;
10847;SDS011;5477;48.806;9.154;2022-11-20T04:17:28;3.97;;;3.07;;
10847;SDS011;5477;48.806;9.154;2022-11-20T04:19:56;4.23;;;3.37;;
10847;SDS011;5477;48.806;9.154;2022-11-20T04:22:25;3.30;;;2.90;;
10847;SDS011;5477;48.806;9.154;2022-11-20T04:24:53;3.40;;;3.00;;
10847;SDS011;5477;48.806;9.154;2022-11-20T04:27:21;4.80;;;3.47;;
10847;SDS011;5477;48.806;9.154;2022-11-20T04:29:49;4.90;;;3.10;;
10847;SDS011;5477;48.806;9.154;2022-11-20T04:32:16;3.97;;;3.27;;
10847;SDS011;5477;48.806;9.154;2022-11-20T04:34:44;4.10;;;3.10;;
10847;SDS011;5477;48.806;9.154;2022-11-20T04:37:12;4.20;;;3.23;;
10847;SDS011;5477;48.806;9.154;2022-11-20T04:39:42;4.00;;;3.30;;
10847;SDS011;5477;48.806;9.154;2022-11-20T04:42:10;4.43;;;3.70;;
10847;SDS011;5477;48.806;9.154;2022-11-20T04:44:56;4.53;;;3.30;;
10847;SDS011;5477;48.806;9.154;2022-11-20T04:47:24;4.43;;;3.00;;
10847;SDS011;5477;48.806;9.154;2022-11-20T04:49:52;3.53;;;3.00;;
10847;SDS011;5477;48.806;9.154;2022-11-20T04:52:20;3.53;;;3.23;;
10847;SDS011;5477;48.806;9.154;2022-11-20T04:54:49;4.10;;;3.00;;
10847;SDS011;5477;48.806;9.154;2022-11-20T04:57:19;4.97;;;3.30;;
10847;SDS011;5477;48.806;9.154;2022-11-20T04:59:47;5.57;;;3.30;;
10847;SDS011;5477;48.806;9.154;2022-11-20T05:02:14;5.00;;;3.13;;
10847;SDS011;5477;48.806;9.154;2022-11-20T05:04:42;4.03;;;3.10;;
10847;SDS011;5477;48.806;9.154;2022-11-20T05:07:10;5.93;;;3.20;;
10847;SDS011;5477;48.806;9.154;2022-11-20T05:09:38;3.50;;;2.77;;
10847;SDS011;5477;48.806;9.154;2022-11-20T05:12:08;3.53;;;2.83;;
10847;SDS011;5477;48.806;9.154;2022-11-20T05:14:36;4.23;;;3.03;;
10847;SDS011;5477;48.806;9.154;2022-11-20T05:17:04;3.43;;;2.83;;
10847;SDS011;5477;48.806;9.154;2022-11-20T05:19:32;4.23;;;3.57;;
10847;SDS011;5477;48.806;9.154;2022-11-20T05:22:00;4.43;;;2.90;;
10847;SDS011;5477;48.806;9.154;2022-11-20T05:24:27;5.73;;;3.00;;
10847;SDS011;5477;48.806;9.154;2022-11-20T05:26:55;4.70;;;3.33;;
10847;SDS011;5477;48.806;9.154;2022-11-20T05:29:25;3.80;;;2.80;;
10847;SDS011;5477;48.806;9.154;2022-11-20T05:31:52;3.30;;;2.57;;
10847;SDS011;5477;48.806;9.154;2022-11-20T05:34:20;3.03;;;2.67;;
10847;SDS011;5477;48.806;9.154;2022-11-20T05:36:48;3.83;;;2.93;;
10847;SDS011;5477;48.806;9.154;2022-11-20T05:39:16;3.57;;;2.90;;
10847;SDS011;5477;48.806;9.154;2022-11-20T05:41:45;5.20;;;2.87;;
10847;SDS011;5477;48.806;9.154;2022-11-20T05:44:34;3.13;;;2.40;;
10847;SDS011;5477;48.806;9.154;2022-11-20T05:47:02;2.80;;;2.50;;
10847;SDS011;5477;48.806;9.154;2022-11-20T05:49:30;4.07;;;2.57;;
10847;SDS011;5477;48.806;9.154;2022-11-20T05:51:58;4.13;;;2.50;;
10847;SDS011;5477;48.806;9.154;2022-11-20T05:54:25;3.87;;;2.50;;
10847;SDS011;5477;48.806;9.154;2022-11-20T05:56:53;3.70;;;2.70;;
10847;SDS011;5477;48.806;9.154;2022-11-20T05:59:21;4.80;;;2.50;;
10847;SDS011;5477;48.806;9.154;2022-11-20T06:01:51;2.83;;;2.47;;
10847;SDS011;5477;48.806;9.154;2022-11-20T06:04:18;3.90;;;2.60;;
10847;SDS011;5477;48.806;9.154;2022-11-20T06:06:46;4.97;;;2.77;;
10847;SDS011;5477;48.806;9.154;2022-11-20T06:09:14;3.53;;;2.33;;
10847;SDS011;5477;48.806;9.154;2022-11-20T06:11:42;3.37;;;2.70;;
10847;SDS011;5477;48.806;9.154;2022-11-20T06:14:10;3.37;;;2.40;;
10847;SDS011;5477;48.806;9.154;2022-11-20T06:16:38;3.50;;;2.60;;
10847;SDS011;5477;48.806;9.154;2022-11-20T06:19:07;2.77;;;2.10;;
10847;SDS011;5477;48.806;9.154;2022-11-20T06:21:35;4.33;;;2.70;;
10847;SDS011;5477;48.806;9.154;2022-11-20T06:24:03;4.60;;;2.47;;
10847;SDS011;5477;48.806;9.154;2022-11-20T06:26:31;4.03;;;2.70;;
10847;SDS011;5477;48.806;9.154;2022-11-20T06:28:59;2.43;;;2.23;;
10847;SDS011;5477;48.806;9.154;2022-11-20T06:31:27;2.80;;;2.47;;
10847;SDS011;5477;48.806;9.154;2022-11-20T06:33:55;3.43;;;2.27;;
10847;SDS011;5477;48.806;9.154;2022-11-20T06:36:25;3.07;;;2.10;;
10847;SDS011;5477;48.806;9.154;2022-11-20T06:38:52;3.33;;;2.40;;
10847;SDS011;5477;48.806;9.154;2022-11-20T06:41:21;3.47;;;2.00;;
10847;SDS011;5477;48.806;9.154;2022-11-20T06:43:49;3.47;;;2.20;;
10847;SDS011;5477;48.806;9.154;2022-11-20T06:46:17;3.57;;;2.57;;
10847;SDS011;5477;48.806;9.154;2022-11-20T06:48:46;2.90;;;2.13;;
10847;SDS011;5477;48.806;9.154;2022-11-20T06:51:15;3.13;;;2.10;;
10847;SDS011;5477;48.806;9.154;2022-11-20T06:53:44;3.00;;;1.80;;
10847;SDS011;5477;48.806;9.154;2022-11-20T06:56:12;2.23;;;1.90;;
10847;SDS011;5477;48.806;9.154;2022-11-20T06:58:41;3.60;;;1.90;;
10847;SDS011;5477;48.806;9.154;2022-11-20T07:01:09;2.70;;;1.60;;
10847;SDS011;5477;48.806;9.154;2022-11-20T07:03:38;2.07;;;1.87;;
10847;SDS011;5477;48.806;9.154;2022-11-20T07:06:07;2.90;;;1.80;;
10847;SDS011;5477;48.806;9.154;2022-11-20T07:08:35;3.93;;;1.77;;
10847;SDS011;5477;48.806;9.154;2022-11-20T07:11:05;2.33;;;1.77;;
10847;SDS011;5477;48.806;9.154;2022-11-20T07:13:34;3.80;;;2.00;;
10847;SDS011;5477;48.806;9.154;2022-11-20T07:16:02;2.37;;;1.90;;
10847;SDS011;5477;48.806;9.154;2022-11-20T07:18:31;3.23;;;2.10;;
10847;SDS011;5477;48.806;9.154;2022-11-20T07:21:00;3.03;;;1.67;;
10847;SDS011;5477;48.806;9.154;2022-11-20T07:23:28;1.83;;;1.60;;
10847;SDS011;5477;48.806;9.154;2022-11-20T07:25:56;1.83;;;1.60;;
10847;SDS011;5477;48.806;9.154;2022-11-20T07:28:25;2.23;;;1.70;;
10847;SDS011;5477;48.806;9.154;2022-11-20T07:30:53;3.50;;;1.80;;
10847;SDS011;5477;48.806;9.154;2022-11-20T07:33:21;1.67;;;1.57;;
10847;SDS011;5477;48.806;9.154;2022-11-20T07:35:49;3.37;;;1.57;;
10847;SDS011;5477;48.806;9.154;2022-11-20T07:38:17;1.83;;;1.50;;
10847;SDS011;5477;48.806;9.154;2022-11-20T07:40:45;3.33;;;1.80;;
10847;SDS011;5477;48.806;9.154;2022-11-20T07:43:13;2.33;;;1.60;;
10847;SDS011;5477;48.806;9.154;2022-11-20T07:45:42;1.80;;;1.70;;
10847;SDS011;5477;48.806;9.154;2022-11-20T07:48:10;4.33;;;2.63;;
10847;SDS011;5477;48.806;9.154;2022-11-20T07:50:38;2.20;;;1.87;;
10847;SDS011;5477;48.806;9.154;2022-11-20T07:53:06;3.00;;;1.83;;
10847;SDS011;5477;48.806;9.154;2022-11-20T07:55:34;2.20;;;1.50;;
10847;SDS011;5477;48.806;9.154;2022-11-20T07:58:02;3.30;;;1.50;;
10847;SDS011;5477;48.806;9.154;2022-11-20T08:00:30;1.80;;;1.47;;
10847;SDS011;5477;48.806;9.154;2022-11-20T08:02:59;1.67;;;1.47;;
10847;SDS011;5477;48.806;9.154;2022-11-20T08:05:30;2.47;;;1.50;;
10847;SDS011;5477;48.806;9.154;2022-11-20T08:07:58;2.00;;;1.80;;
10847;SDS011;5477;48.806;9.154;2022-11-20T08:10:26;3.83;;;1.50;;
10847;SDS011;5477;48.806;9.154;2022-11-20T08:12:54;2.00;;;1.43;;
10847;SDS011;5477;48.806;9.154;2022-11-20T08:15:39;2.33;;;1.50;;
10847;SDS011;5477;48.806;9.154;2022-11-20T08:18:10;1.73;;;1.43;;
10847;SDS011;5477;48.806;9.154;2022-11-20T08:20:56;1.73;;;1.13;;
10847;SDS011;5477;48.806;9.154;2022-11-20T08:23:24;4.90;;;1.50;;
10847;SDS011;5477;48.806;9.154;2022-11-20T08:25:52;1.63;;;1.43;;
10847;SDS011;5477;48.806;9.154;2022-11-20T08:28:20;2.60;;;1.20;;
10847;SDS011;5477;48.806;9.154;2022-11-20T08:30:48;1.80;;;1.10;;
10847;SDS011;5477;48.806;9.154;2022-11-20T08:33:18;1.07;;;0.97;;
10847;SDS011;5477;48.806;9.154;2022-11-20T08:35:46;1.33;;;1.20;;
10847;SDS011;5477;48.806;9.154;2022-11-20T08:38:14;1.87;;;1.00;;
10847;SDS011;5477;48.806;9.154;2022-11-20T08:40:41;2.83;;;1.10;;
10847;SDS011;5477;48.806;9.154;2022-11-20T08:43:31;1.60;;;1.40;;
10847;SDS011;5477;48.806;9.154;2022-11-20T08:45:59;1.77;;;1.30;;
10847;SDS011;5477;48.806;9.154;2022-11-20T08:48:28;1.10;;;1.00;;
10847;SDS011;5477;48.806;9.154;2022-11-20T08:50:57;1.80;;;1.13;;
10847;SDS011;5477;48.806;9.154;2022-11-20T08:53:25;1.30;;;1.00;;
10847;SDS011;5477;48.806;9.154;2022-11-20T08:55:53;0.80;;;0.80;;
10847;SDS011;5477;48.806;9.154;2022-11-20T08:58:22;1.00;;;0.80;;
10847;SDS011;5477;48.806;9.154;2022-11-20T09:00:50;0.90;;;0.90;;
10847;SDS011;5477;48.806;9.154;2022-11-20T09:03:18;1.17;;;0.97;;
10847;SDS011;5477;48.806;9.154;2022-11-20T09:05:47;0.97;;;0.87;;
10847;SDS011;5477;48.806;9.154;2022-11-20T09:08:15;0.90;;;0.80;;
10847;SDS011;5477;48.806;9.154;2022-11-20T09:10:43;0.80;;;0.80;;
10847;SDS011;5477;48.806;9.154;2022-11-20T09:13:11;0.80;;;0.77;;
10847;SDS011;5477;48.806;9.154;2022-11-20T09:15:39;1.47;;;0.70;;
10847;SDS011;5477;48.806;9.154;2022-11-20T09:18:06;1.67;;;0.83;;
10847;SDS011;5477;48.806;9.154;2022-11-20T09:20:34;0.60;;;0.60;;
10847;SDS011;5477;48.806;9.154;2022-11-20T09:23:04;1.70;;;0.80;;
10847;SDS011;5477;48.806;9.154;2022-11-20T09:25:32;0.80;;;0.80;;
10847;SDS011;5477;48.806;9.154;2022-11-20T09:28:00;0.77;;;0.77;;
10847;SDS011;5477;48.806;9.154;2022-11-20T09:30:28;1.03;;;0.70;;
10847;SDS011;5477;48.806;9.154;2022-11-20T09:32:57;2.40;;;1.00;;
10847;SDS011;5477;48.806;9.154;2022-11-20T09:35:25;2.07;;;0.90;;
10847;SDS011;5477;48.806;9.154;2022-11-20T09:37:53;0.90;;;0.73;;
10847;SDS011;5477;48.806;9.154;2022-11-20T09:40:23;1.40;;;0.70;;
10847;SDS011;5477;48.806;9.154;2022-11-20T09:42:55;0.90;;;0.70;;
10847;SDS011;5477;48.806;9.154;2022-11-20T09:45:30;0.63;;;0.63;;
10847;SDS011;5477;48.806;9.154;2022-11-20T09:48:29;0.73;;;0.73;;
10847;SDS011;5477;48.806;9.154;2022-11-20T09:51:06;0.83;;;0.80;;
10847;SDS011;5477;48.806;9.154;2022-11-20T09:53:45;0.67;;;0.67;;
10847;SDS011;5477;48.806;9.154;2022-11-20T09:56:21;0.90;;;0.80;;
10847;SDS011;5477;48.806;9.154;2022-11-20T09:58:50;1.83;;;0.70;;
10847;SDS011;5477;48.806;9.154;2022-11-20T10:01:20;0.90;;;0.90;;
10847;SDS011;5477;48.806;9.154;2022-11-20T10:03:53;1.00;;;0.90;;
10847;SDS011;5477;48.806;9.154;2022-11-20T10:06:26;0.70;;;0.70;;
10847;SDS011;5477;48.806;9.154;2022-11-20T10:11:48;0.70;;;0.70;;
10847;SDS011;5477;48.806;9.154;2022-11-20T10:14:26;0.93;;;0.70;;
10847;SDS011;5477;48.806;9.154;2022-11-20T10:17:02;1.63;;;0.80;;
10847;SDS011;5477;48.806;9.154;2022-11-20T10:19:54;1.53;;;1.00;;
10847;SDS011;5477;48.806;9.154;2022-11-20T10:22:31;1.10;;;1.00;;
10847;SDS011;5477;48.806;9.154;2022-11-20T10:25:11;1.13;;;0.80;;
10847;SDS011;5477;48.806;9.154;2022-11-20T10:27:50;0.70;;;0.70;;
10847;SDS011;5477;48.806;9.154;2022-11-20T10:30:31;1.03;;;0.80;;
10847;SDS011;5477;48.806;9.154;2022-11-20T10:33:05;1.47;;;0.70;;
10847;SDS011;5477;48.806;9.154;2022-11-20T10:35:41;1.97;;;1.50;;
10847;SDS011;5477;48.806;9.154;2022-11-20T10:38:13;1.40;;;1.30;;
10847;SDS011;5477;48.806;9.154;2022-11-20T10:40:44;1.13;;;0.83;;
10847;SDS011;5477;48.806;9.154;2022-11-20T10:43:17;1.00;;;0.87;;
10847;SDS011;5477;48.806;9.154;2022-11-20T10:45:50;1.10;;;1.00;;
10847;SDS011;5477;48.806;9.154;2022-11-20T10:48:23;1.17;;;0.97;;
10847;SDS011;5477;48.806;9.154;2022-11-20T10:50:55;1.10;;;1.00;;
10847;SDS011;5477;48.806;9.154;2022-11-20T10:53:31;1.20;;;1.10;;
10847;SDS011;5477;48.806;9.154;2022-11-20T10:56:16;1.97;;;1.43;;
10847;SDS011;5477;48.806;9.154;2022-11-20T10:58:52;2.43;;;1.40;;
10847;SDS011;5477;48.806;9.154;2022-11-20T11:01:28;1.60;;;1.40;;
10847;SDS011;5477;48.806;9.154;2022-11-20T11:03:56;1.77;;;1.30;;
10847;SDS011;5477;48.806;9.154;2022-11-20T11:06:28;1.00;;;0.90;;
10847;SDS011;5477;48.806;9.154;2022-11-20T11:09:01;1.57;;;1.30;;
10847;SDS011;5477;48.806;9.154;2022-11-20T11:11:37;1.73;;;1.40;;
10847;SDS011;5477;48.806;9.154;2022-11-20T11:14:08;2.20;;;1.30;;
10847;SDS011;5477;48.806;9.154;2022-11-20T11:16:40;2.50;;;1.10;;
10847;SDS011;5477;48.806;9.154;2022-11-20T11:19:17;1.13;;;0.93;;
10847;SDS011;5477;48.806;9.154;2022-11-20T11:21:46;1.40;;;1.10;;
10847;SDS011;5477;48.806;9.154;2022-11-20T11:24:21;2.80;;;1.50;;
10847;SDS011;5477;48.806;9.154;2022-11-20T11:27:10;1.50;;;1.20;;
10847;SDS011;5477;48.806;9.154;2022-11-20T11:29:44;1.97;;;1.10;;
10847;SDS011;5477;48.806;9.154;2022-11-20T11:32:13;2.23;;;1.37;;
10847;SDS011;5477;48.806;9.154;2022-11-20T11:34:58;3.17;;;1.27;;
10847;SDS011;5477;48.806;9.154;2022-11-20T11:37:26;1.77;;;1.30;;
10847;SDS011;5477;48.806;9.154;2022-11-20T11:39:56;2.60;;;1.20;;
10847;SDS011;5477;48.806;9.154;2022-11-20T11:42:46;1.50;;;0.80;;
10847;SDS011;5477;48.806;9.154;2022-11-20T11:45:21;2.23;;;1.40;;
10847;SDS011;5477;48.806;9.154;2022-11-20T11:47:48;2.57;;;1.30;;
10847;SDS011;5477;48.806;9.154;2022-11-20T11:50:19;2.20;;;1.30;;
10847;SDS011;5477;48.806;9.154;2022-11-20T11:52:51;3.30;;;1.43;;
10847;SDS011;5477;48.806;9.154;2022-11-20T11:55:26;2.17;;;1.20;;
10847;SDS011;5477;48.806;9.154;2022-11-20T11:58:01;3.40;;;1.40;;
10847;SDS011;5477;48.806;9.154;2022-11-20T12:00:41;3.57;;;1.33;;
10847;SDS011;5477;48.806;9.154;2022-11-20T12:03:18;3.13;;;1.30;;
10847;SDS011;5477;48.806;9.154;2022-11-20T12:06:01;2.27;;;1.10;;
10847;SDS011;5477;48.806;9.154;2022-11-20T12:08:42;3.83;;;1.43;;
10847;SDS011;5477;48.806;9.154;2022-11-20T12:11:21;1.77;;;1.07;;
10847;SDS011;5477;48.806;9.154;2022-11-20T12:14:07;3.30;;;1.20;;
10847;SDS011;5477;48.806;9.154;2022-11-20T12:16:47;1.87;;;1.10;;
10847;SDS011;5477;48.806;9.154;2022-11-20T12:19:20;3.97;;;0.97;;
10847;SDS011;5477;48.806;9.154;2022-11-20T12:22:01;2.00;;;0.83;;
10847;SDS011;5477;48.806;9.154;2022-11-20T12:24:46;2.70;;;1.00;;
10847;SDS011;5477;48.806;9.154;2022-11-20T12:30:24;2.10;;;1.10;;
10847;SDS011;5477;48.806;9.154;2022-11-20T12:33:18;1.10;;;1.00;;
10847;SDS011;5477;48.806;9.154;2022-11-20T12:36:08;2.67;;;1.20;;
10847;SDS011;5477;48.806;9.154;2022-11-20T12:38:54;1.87;;;1.10;;
10847;SDS011;5477;48.806;9.154;2022-11-20T12:41:46;2.17;;;1.10;;
10847;SDS011;5477;48.806;9.154;2022-11-20T12:45:17;1.50;;;1.10;;
10847;SDS011;5477;48.806;9.154;2022-11-20T12:57:46;1.13;;;0.90;;
10847;SDS011;5477;48.806;9.154;2022-11-20T13:00:25;1.67;;;0.83;;
10847;SDS011;5477;48.806;9.154;2022-11-20T13:03:06;1.87;;;0.93;;
10847;SDS011;5477;48.806;9.154;2022-11-20T13:06:02;1.87;;;0.80;;
10847;SDS011;5477;48.806;9.154;2022-11-20T13:08:47;0.97;;;0.80;;
10847;SDS011;5477;48.806;9.154;2022-11-20T13:11:27;1.30;;;0.80;;
10847;SDS011;5477;48.806;9.154;2022-11-20T13:14:11;3.10;;;1.00;;
10847;SDS011;5477;48.806;9.154;2022-11-20T13:17:05;1.20;;;1.10;;
10847;SDS011;5477;48.806;9.154;2022-11-20T13:19:42;4.13;;;1.27;;
10847;SDS011;5477;48.806;9.154;2022-11-20T13:22:27;1.63;;;1.00;;
10847;SDS011;5477;48.806;9.154;2022-11-20T13:25:02;2.43;;;0.80;;
10847;SDS011;5477;48.806;9.154;2022-11-20T13:27:55;2.80;;;0.93;;
10847;SDS011;5477;48.806;9.154;2022-11-20T13:30:51;1.90;;;0.90;;
10847;SDS011;5477;48.806;9.154;2022-11-20T13:33:22;2.63;;;1.30;;
10847;SDS011;5477;48.806;9.154;2022-11-20T13:35:55;5.73;;;2.73;;
10847;SDS011;5477;48.806;9.154;2022-11-20T13:38:25;1.17;;;0.70;;
10847;SDS011;5477;48.806;9.154;2022-11-20T13:40:59;1.73;;;1.07;;
10847;SDS011;5477;48.806;9.154;2022-11-20T13:43:49;1.93;;;0.87;;
10847;SDS011;5477;48.806;9.154;2022-11-20T13:46:19;1.70;;;0.80;;
10847;SDS011;5477;48.806;9.154;2022-11-20T13:48:50;3.17;;;1.53;;
10847;SDS011;5477;48.806;9.154;2022-11-20T13:51:24;2.77;;;0.80;;
10847;SDS011;5477;48.806;9.154;2022-11-20T13:54:07;2.07;;;0.80;;
10847;SDS011;5477;48.806;9.154;2022-11-20T13:56:53;1.23;;;0.80;;
10847;SDS011;5477;48.806;9.154;2022-11-20T13:59:32;1.50;;;0.90;;
10847;SDS011;5477;48.806;9.154;2022-11-20T14:02:18;0.90;;;0.80;;
10847;SDS011;5477;48.806;9.154;2022-11-20T14:04:49;3.07;;;1.33;;
10847;SDS011;5477;48.806;9.154;2022-11-20T14:07:20;1.17;;;0.80;;
10847;SDS011;5477;48.806;9.154;2022-11-20T14:09:53;1.83;;;1.10;;
10847;SDS011;5477;48.806;9.154;2022-11-20T14:12:23;1.37;;;0.83;;
10847;SDS011;5477;48.806;9.154;2022-11-20T14:14:55;2.33;;;1.13;;
10847;SDS011;5477;48.806;9.154;2022-11-20T14:17:24;1.67;;;0.80;;
10847;SDS011;5477;48.806;9.154;2022-11-20T14:19:58;15.43;;;5.63;;
10847;SDS011;5477;48.806;9.154;2022-11-20T14:22:29;3.57;;;1.53;;
10847;SDS011;5477;48.806;9.154;2022-11-20T14:25:03;1.50;;;1.03;;
10847;SDS011;5477;48.806;9.154;2022-11-20T14:27:34;2.00;;;1.10;;
10847;SDS011;5477;48.806;9.154;2022-11-20T14:30:05;2.57;;;1.00;;
10847;SDS011;5477;48.806;9.154;2022-11-20T14:32:41;3.13;;;1.30;;
10847;SDS011;5477;48.806;9.154;2022-11-20T14:35:16;3.33;;;0.93;;
10847;SDS011;5477;48.806;9.154;2022-11-20T14:37:47;2.40;;;1.40;;
10847;SDS011;5477;48.806;9.154;2022-11-20T14:40:27;1.77;;;0.93;;
10847;SDS011;5477;48.806;9.154;2022-11-20T14:42:57;7.43;;;2.97;;
10847;SDS011;5477;48.806;9.154;2022-11-20T14:45:26;2.13;;;1.03;;
10847;SDS011;5477;48.806;9.154;2022-11-20T14:47:54;2.43;;;1.10;;
10847;SDS011;5477;48.806;9.154;2022-11-20T14:50:25;3.53;;;1.47;;
10847;SDS011;5477;48.806;9.154;2022-11-20T14:52:55;4.07;;;2.30;;
10847;SDS011;5477;48.806;9.154;2022-11-20T14:55:25;8.97;;;4.13;;
10847;SDS011;5477;48.806;9.154;2022-11-20T14:57:59;7.57;;;3.53;;
10847;SDS011;5477;48.806;9.154;2022-11-20T15:00:28;5.97;;;3.13;;
10847;SDS011;5477;48.806;9.154;2022-11-20T15:02:57;3.87;;;1.97;;
10847;SDS011;5477;48.806;9.154;2022-11-20T15:05:26;5.10;;;2.00;;
10847;SDS011;5477;48.806;9.154;2022-11-20T15:08:12;1.67;;;1.10;;
10847;SDS011;5477;48.806;9.154;2022-11-20T15:10:46;2.37;;;1.10;;
10847;SDS011;5477;48.806;9.154;2022-11-20T15:13:16;4.13;;;1.90;;
10847;SDS011;5477;48.806;9.154;2022-11-20T15:15:49;6.67;;;2.40;;
10847;SDS011;5477;48.806;9.154;2022-11-20T15:18:19;4.03;;;1.50;;
10847;SDS011;5477;48.806;9.154;2022-11-20T15:20:49;18.73;;;7.83;;
10847;SDS011;5477;48.806;9.154;2022-11-20T15:23:18;14.83;;;9.13;;
10847;SDS011;5477;48.806;9.154;2022-11-20T15:25:48;3.20;;;2.23;;
10847;SDS011;5477;48.806;9.154;2022-11-20T15:28:17;6.83;;;3.60;;
10847;SDS011;5477;48.806;9.154;2022-11-20T15:30:46;9.83;;;5.00;;
10847;SDS011;5477;48.806;9.154;2022-11-20T15:33:16;11.07;;;7.23;;
10847;SDS011;5477;48.806;9.154;2022-11-20T15:35:44;7.23;;;3.67;;
10847;SDS011;5477;48.806;9.154;2022-11-20T15:38:12;4.43;;;3.33;;
10847;SDS011;5477;48.806;9.154;2022-11-20T15:40:40;3.27;;;2.47;;
10847;SDS011;5477;48.806;9.154;2022-11-20T15:43:09;4.83;;;1.80;;